createdAt,value
2023-06-02T00:18:42.012Z,74.9
2023-06-02T00:48:58.461Z,76.8
2023-06-02T01:19:15.563Z,78.4
2023-06-02T01:49:32.443Z,79.9
2023-06-02T02:19:49.604Z,80.7
2023-06-02T02:50:07.463Z,80
2023-06-02T03:20:24.526Z,80.30001
2023-06-02T03:50:42.390Z,79.8
2023-06-02T04:21:01.270Z,78.4
2023-06-02T04:51:19.548Z,76.9
2023-06-02T05:21:38.922Z,74.4
2023-06-02T05:51:57.491Z,73
2023-06-02T06:22:15.760Z,72.4
2023-06-02T06:52:43.941Z,59.9
2023-06-02T07:23:12.018Z,54.8
2023-06-02T07:53:33.494Z,54.8
2023-06-02T08:23:52.042Z,54.3
2023-06-02T08:54:15.102Z,49.4
2023-06-02T09:24:37.036Z,47.1
2023-06-02T09:55:01.579Z,45
2023-06-02T10:25:19.741Z,44.4
2023-06-02T10:55:42.871Z,43.1
2023-06-02T11:26:01.960Z,46.3
2023-06-02T11:56:18.565Z,44
2023-06-02T12:26:40.297Z,41.8
2023-06-02T12:56:54.630Z,43.5
2023-06-02T13:27:11.967Z,41.6
2023-06-02T13:57:23.331Z,42.1
2023-06-02T14:27:22.683Z,41.4
2023-06-02T14:57:36.105Z,43.4
2023-06-02T15:27:49.874Z,43.5
2023-06-02T15:58:06.571Z,43.2
2023-06-02T16:28:23.967Z,45.1
2023-06-02T16:58:41.026Z,48.2
2023-06-02T17:28:58.698Z,48.1
2023-06-02T17:59:16.239Z,47
2023-06-02T18:29:34.884Z,51.1
2023-06-02T18:59:51.950Z,56.9
2023-06-02T19:30:08.987Z,59.1
2023-06-02T20:00:24.474Z,58.8
2023-06-02T20:30:41.018Z,60
2023-06-02T21:00:58.104Z,61.5
2023-06-02T21:31:16.012Z,62.2
2023-06-02T22:01:32.390Z,62.5
2023-06-02T22:31:48.169Z,63.5
2023-06-02T23:02:05.752Z,65.4
2023-06-02T23:32:23.399Z,66.8
